createdAt,value
2018-02-23T00:00:00.983Z,19.00
2018-02-23T00:02:29.204Z,18.60
2018-02-23T00:04:57.450Z,18.77
2018-02-23T00:07:26.448Z,19.10
2018-02-23T00:09:55.454Z,18.33
2018-02-23T00:12:24.673Z,19.73
2018-02-23T00:14:52.852Z,18.83
2018-02-23T00:17:21.102Z,19.07
2018-02-23T00:19:49.323Z,20.00
2018-02-23T00:22:17.555Z,18.40
2018-02-23T00:24:46.504Z,19.33
2018-02-23T00:27:14.720Z,19.10
2018-02-23T00:29:42.932Z,19.60
2018-02-23T00:32:11.140Z,20.13
2018-02-23T00:34:39.365Z,18.80
2018-02-23T00:37:07.942Z,19.17
2018-02-23T00:39:36.233Z,20.13
2018-02-23T00:42:05.362Z,20.67
2018-02-23T00:44:33.578Z,20.63
2018-02-23T00:47:01.774Z,19.90
2018-02-23T00:49:30.101Z,19.90
2018-02-23T00:51:59.215Z,18.53
2018-02-23T00:54:28.193Z,19.13
2018-02-23T00:56:56.436Z,20.90
2018-02-23T00:59:25.105Z,20.80
2018-02-23T01:01:53.341Z,20.20
2018-02-23T01:04:22.344Z,20.30
2018-02-23T01:06:50.553Z,21.80
2018-02-23T01:09:18.765Z,20.43
2018-02-23T01:11:47.050Z,21.00
2018-02-23T01:14:15.744Z,21.40
2018-02-23T01:16:44.800Z,20.40
2018-02-23T01:19:13.189Z,20.47
2018-02-23T01:21:41.396Z,20.67
2018-02-23T01:24:10.370Z,20.43
2018-02-23T01:26:38.731Z,20.77
2018-02-23T01:29:06.965Z,21.03
2018-02-23T01:31:35.229Z,20.27
2018-02-23T01:34:03.516Z,20.50
2018-02-23T01:36:31.764Z,20.07
2018-02-23T01:39:00.796Z,21.37
2018-02-23T01:41:29.064Z,21.37
2018-02-23T01:43:57.409Z,20.63
2018-02-23T01:46:27.706Z,21.90
2018-02-23T01:48:56.021Z,22.07
2018-02-23T01:51:25.161Z,21.87
2018-02-23T01:53:53.461Z,21.17
2018-02-23T01:56:21.713Z,22.00
2018-02-23T01:58:50.063Z,22.10
2018-02-23T02:01:18.314Z,23.20
2018-02-23T02:03:46.583Z,21.77
2018-02-23T02:06:14.779Z,22.43
2018-02-23T02:08:43.800Z,22.27
2018-02-23T02:11:12.032Z,23.50
2018-02-23T02:13:41.004Z,21.87
2018-02-23T02:16:09.208Z,22.17
2018-02-23T02:18:38.212Z,22.40
2018-02-23T02:21:06.416Z,22.43
2018-02-23T02:23:34.633Z,21.47
2018-02-23T02:26:02.942Z,22.53
2018-02-23T02:28:31.137Z,23.00
2018-02-23T02:30:59.353Z,22.40
2018-02-23T02:33:27.642Z,22.63
2018-02-23T02:35:56.826Z,21.83
2018-02-23T02:38:25.128Z,20.37
2018-02-23T02:40:54.129Z,21.03
2018-02-23T02:43:23.224Z,20.93
2018-02-23T02:45:52.208Z,21.90
2018-02-23T02:48:22.698Z,22.50
2018-02-23T02:50:50.973Z,21.60
2018-02-23T02:53:19.168Z,22.30
2018-02-23T02:55:47.594Z,22.50
2018-02-23T02:58:15.792Z,22.33
2018-02-23T03:00:44.016Z,21.57
2018-02-23T03:03:13.022Z,21.10
2018-02-23T03:05:41.270Z,22.77
2018-02-23T03:08:09.468Z,22.10
2018-02-23T03:10:38.484Z,21.90
2018-02-23T03:13:06.752Z,22.83
2018-02-23T03:15:35.705Z,22.17
2018-02-23T03:18:03.932Z,23.83
2018-02-23T03:20:32.144Z,22.80
2018-02-23T03:23:00.345Z,22.10
2018-02-23T03:25:29.341Z,22.47
2018-02-23T03:27:58.324Z,23.47
2018-02-23T03:30:26.526Z,23.40
2018-02-23T03:32:54.801Z,22.30
2018-02-23T03:35:23.007Z,23.00
2018-02-23T03:37:51.229Z,22.67
2018-02-23T03:40:20.299Z,23.17
2018-02-23T03:42:48.518Z,22.47
2018-02-23T03:45:17.815Z,23.53
2018-02-23T03:47:46.223Z,22.50
2018-02-23T03:50:16.438Z,24.50
2018-02-23T03:52:44.687Z,23.43
2018-02-23T03:55:13.735Z,23.10
2018-02-23T03:57:42.732Z,24.07
2018-02-23T04:00:10.953Z,24.77
2018-02-23T04:02:39.957Z,23.07
2018-02-23T04:05:08.174Z,22.50
2018-02-23T04:07:36.419Z,25.63
2018-02-23T04:10:04.645Z,25.50
2018-02-23T04:12:32.861Z,23.33
2018-02-23T04:15:01.810Z,24.13
2018-02-23T04:17:30.085Z,22.83
2018-02-23T04:19:58.286Z,24.07
2018-02-23T04:22:27.248Z,23.77
2018-02-23T04:24:55.645Z,23.77
2018-02-23T04:27:24.653Z,24.27
2018-02-23T04:29:53.669Z,24.43
2018-02-23T04:32:22.777Z,25.10
2018-02-23T04:34:50.980Z,22.77
2018-02-23T04:37:19.180Z,24.57
2018-02-23T04:39:48.236Z,24.03
2018-02-23T04:42:16.438Z,24.77
2018-02-23T04:44:44.647Z,23.40
2018-02-23T04:47:12.876Z,25.07
2018-02-23T04:49:41.077Z,25.07
2018-02-23T04:52:12.478Z,24.70
2018-02-23T04:54:40.719Z,24.27
2018-02-23T04:57:09.681Z,23.87
2018-02-23T04:59:37.889Z,24.97
2018-02-23T05:02:06.138Z,25.03
2018-02-23T05:04:34.353Z,23.43
2018-02-23T05:07:02.562Z,26.23
2018-02-23T05:09:30.923Z,24.53
2018-02-23T05:11:59.125Z,26.60
2018-02-23T05:14:28.065Z,24.17
2018-02-23T05:16:57.076Z,25.03
2018-02-23T05:19:25.296Z,24.70
2018-02-23T05:21:53.486Z,26.43
2018-02-23T05:24:22.595Z,26.90
2018-02-23T05:26:51.553Z,24.57
2018-02-23T05:29:19.748Z,26.20
2018-02-23T05:31:48.852Z,25.87
2018-02-23T05:34:17.056Z,23.83
2018-02-23T05:36:46.266Z,27.07
2018-02-23T05:39:14.526Z,23.80
2018-02-23T05:41:42.772Z,26.87
2018-02-23T05:44:11.750Z,25.87
2018-02-23T05:46:40.130Z,26.30
2018-02-23T05:49:08.392Z,25.43
2018-02-23T05:51:36.596Z,24.37
2018-02-23T05:54:05.586Z,25.23
2018-02-23T05:56:34.632Z,26.70
2018-02-23T05:59:03.006Z,24.87
2018-02-23T06:01:31.213Z,24.93
2018-02-23T06:03:59.800Z,25.93
2018-02-23T06:06:28.109Z,25.53
2018-02-23T06:08:57.592Z,26.23
2018-02-23T06:11:26.730Z,25.93
2018-02-23T06:13:54.934Z,24.83
2018-02-23T06:16:28.104Z,25.87
2018-02-23T06:18:59.092Z,25.57
2018-02-23T06:21:28.124Z,26.33
2018-02-23T06:23:56.380Z,26.43
2018-02-23T06:26:25.369Z,26.77
2018-02-23T06:28:54.390Z,25.40
2018-02-23T06:31:22.689Z,25.83
2018-02-23T06:33:51.085Z,25.63
2018-02-23T06:36:19.489Z,25.13
2018-02-23T06:38:48.548Z,26.07
2018-02-23T06:41:16.800Z,26.50
2018-02-23T06:43:45.001Z,25.27
2018-02-23T06:46:13.264Z,25.77
2018-02-23T06:48:41.470Z,25.70
2018-02-23T06:51:09.684Z,26.47
2018-02-23T06:53:37.988Z,26.93
2018-02-23T06:56:06.204Z,25.77
2018-02-23T06:58:34.412Z,24.13
2018-02-23T07:01:03.667Z,24.50
2018-02-23T07:03:31.925Z,25.93
2018-02-23T07:06:00.297Z,25.00
2018-02-23T07:08:28.620Z,25.90
2018-02-23T07:10:56.847Z,24.93
2018-02-23T07:13:25.047Z,26.83
2018-02-23T07:15:53.353Z,25.43
2018-02-23T07:18:22.348Z,25.07
2018-02-23T07:20:50.562Z,26.60
2018-02-23T07:23:18.821Z,26.27
2018-02-23T07:25:47.034Z,24.80
2018-02-23T07:28:15.310Z,26.27
2018-02-23T07:30:43.568Z,26.37
2018-02-23T07:33:11.957Z,25.83
2018-02-23T07:35:40.933Z,26.07
2018-02-23T07:38:09.204Z,26.13
2018-02-23T07:40:37.413Z,27.00
2018-02-23T07:43:05.756Z,27.30
2018-02-23T07:45:34.008Z,26.50
2018-02-23T07:48:02.309Z,25.73
2018-02-23T07:50:30.517Z,26.20
2018-02-23T07:52:58.760Z,24.60
2018-02-23T07:55:26.981Z,27.37
2018-02-23T07:57:55.396Z,25.67
2018-02-23T08:00:24.821Z,25.17
2018-02-23T08:02:53.327Z,28.00
2018-02-23T08:05:21.751Z,25.80
2018-02-23T08:07:51.115Z,26.67
2018-02-23T08:10:19.354Z,25.73
2018-02-23T08:12:47.616Z,26.77
2018-02-23T08:15:16.696Z,27.40
2018-02-23T08:17:44.884Z,26.13
2018-02-23T08:20:13.861Z,26.57
2018-02-23T08:22:42.192Z,24.80
2018-02-23T08:25:10.421Z,25.03
2018-02-23T08:27:39.409Z,24.73
2018-02-23T08:30:07.801Z,25.03
2018-02-23T08:32:36.780Z,23.90
2018-02-23T08:35:05.331Z,25.37
2018-02-23T08:37:33.578Z,25.03
2018-02-23T08:40:01.812Z,25.00
2018-02-23T08:42:30.802Z,23.20
2018-02-23T08:44:59.094Z,25.80
2018-02-23T08:47:28.066Z,26.80
2018-02-23T08:49:56.315Z,24.13
2018-02-23T08:52:24.559Z,23.57
2018-02-23T08:54:53.036Z,24.60
2018-02-23T08:57:21.403Z,25.13
2018-02-23T08:59:49.762Z,23.30
2018-02-23T09:02:17.986Z,22.37
2018-02-23T09:04:46.184Z,23.10
2018-02-23T09:07:14.481Z,23.60
2018-02-23T09:09:42.728Z,25.43
2018-02-23T09:12:11.052Z,24.07
2018-02-23T09:14:40.173Z,22.90
2018-02-23T09:17:08.361Z,23.77
2018-02-23T09:19:36.621Z,21.90
2018-02-23T09:22:04.832Z,23.13
2018-02-23T09:24:33.040Z,23.03
2018-02-23T09:27:01.242Z,23.33
2018-02-23T09:29:29.497Z,24.43
2018-02-23T09:31:57.705Z,23.83
2018-02-23T09:34:37.839Z,22.90
2018-02-23T09:37:06.810Z,22.13
2018-02-23T09:39:35.126Z,23.23
2018-02-23T09:42:03.351Z,22.33
2018-02-23T09:44:31.620Z,24.17
2018-02-23T09:46:59.808Z,20.87
2018-02-23T09:49:28.196Z,20.83
2018-02-23T09:51:56.493Z,20.20
2018-02-23T09:54:25.453Z,19.83
2018-02-23T09:56:53.764Z,20.30
2018-02-23T09:59:21.960Z,19.97
2018-02-23T10:01:52.853Z,20.03
2018-02-23T10:04:21.877Z,20.63
2018-02-23T10:06:50.108Z,21.20
2018-02-23T10:09:18.346Z,20.00
2018-02-23T10:11:47.336Z,21.67
2018-02-23T10:14:16.209Z,21.03
2018-02-23T10:16:44.434Z,21.03
2018-02-23T10:19:12.717Z,21.07
2018-02-23T10:21:40.914Z,20.57
2018-02-23T10:24:09.973Z,21.90
2018-02-23T10:26:38.397Z,20.77
2018-02-23T10:29:07.642Z,20.60
2018-02-23T10:31:35.872Z,20.70
2018-02-23T10:34:04.256Z,19.90
2018-02-23T10:36:33.338Z,20.10
2018-02-23T10:39:02.324Z,19.23
2018-02-23T10:41:30.725Z,19.77
2018-02-23T10:43:59.063Z,20.17
2018-02-23T10:46:27.363Z,20.63
2018-02-23T10:48:56.357Z,19.90
2018-02-23T10:51:25.324Z,21.37
2018-02-23T10:53:53.924Z,20.13
2018-02-23T10:56:22.185Z,19.83
2018-02-23T10:58:50.384Z,20.73
2018-02-23T11:01:18.577Z,19.23
2018-02-23T11:03:47.000Z,20.20
2018-02-23T11:06:15.267Z,19.60
2018-02-23T11:08:43.437Z,20.37
2018-02-23T11:11:11.649Z,19.33
2018-02-23T11:13:39.835Z,20.57
2018-02-23T11:16:08.109Z,20.33
2018-02-23T11:18:36.409Z,19.73
2018-02-23T11:21:04.600Z,19.93
2018-02-23T11:23:32.797Z,20.47
2018-02-23T11:26:01.066Z,20.80
2018-02-23T11:28:29.256Z,21.13
2018-02-23T11:30:57.493Z,21.03
2018-02-23T11:33:26.073Z,20.40
2018-02-23T11:35:54.374Z,19.40
2018-02-23T11:38:22.580Z,20.73
2018-02-23T11:40:50.886Z,21.57
2018-02-23T11:43:19.849Z,19.77
2018-02-23T11:45:48.041Z,23.00
2018-02-23T11:48:16.330Z,22.47
2018-02-23T11:50:45.296Z,21.30
2018-02-23T11:53:13.495Z,18.83
2018-02-23T11:55:42.705Z,20.83
2018-02-23T11:58:11.928Z,19.10
2018-02-23T12:00:40.405Z,21.10
2018-02-23T12:03:08.645Z,19.30
2018-02-23T12:05:37.663Z,18.07
2018-02-23T12:08:05.857Z,19.20
2018-02-23T12:10:34.428Z,18.60
2018-02-23T12:13:03.579Z,18.57
2018-02-23T12:15:31.798Z,16.83
2018-02-23T12:18:00.048Z,16.83
2018-02-23T12:20:28.337Z,19.17
2018-02-23T12:22:56.628Z,20.00
2018-02-23T12:25:25.029Z,21.70
2018-02-23T12:27:53.320Z,21.37
2018-02-23T12:30:21.520Z,21.00
2018-02-23T12:32:49.744Z,31.60
2018-02-23T12:35:17.953Z,23.63
2018-02-23T12:37:46.152Z,22.27
2018-02-23T12:40:15.188Z,21.47
2018-02-23T12:42:43.406Z,19.57
2018-02-23T12:45:11.675Z,18.13
2018-02-23T12:47:42.326Z,18.60
2018-02-23T12:50:11.292Z,18.53
2018-02-23T12:52:39.489Z,20.67
2018-02-23T12:55:07.741Z,19.90
2018-02-23T12:57:35.978Z,20.20
2018-02-23T13:00:04.220Z,20.63
2018-02-23T13:02:33.206Z,20.37
2018-02-23T13:05:01.420Z,20.33
2018-02-23T13:07:29.652Z,20.73
2018-02-23T13:09:58.725Z,20.50
2018-02-23T13:12:26.926Z,21.90
2018-02-23T13:15:00.809Z,21.03
2018-02-23T13:17:29.011Z,21.20
2018-02-23T13:19:57.443Z,21.77
2018-02-23T13:22:25.698Z,22.43
2018-02-23T13:24:54.693Z,22.70
2018-02-23T13:27:22.884Z,21.93
2018-02-23T13:29:54.325Z,21.40
2018-02-23T13:32:22.532Z,21.40
2018-02-23T13:34:50.736Z,21.57
2018-02-23T13:37:19.084Z,21.67
2018-02-23T13:39:52.857Z,21.50
2018-02-23T13:42:26.643Z,21.23
2018-02-23T13:44:55.641Z,21.70
2018-02-23T13:47:24.806Z,23.10
2018-02-23T13:49:56.328Z,22.67
2018-02-23T13:52:24.529Z,22.97
2018-02-23T13:54:52.732Z,24.13
2018-02-23T13:57:21.755Z,22.77
2018-02-23T13:59:49.940Z,23.33
2018-02-23T14:02:18.153Z,22.70
2018-02-23T14:04:46.372Z,23.67
2018-02-23T14:07:20.288Z,23.50
2018-02-23T14:09:48.554Z,22.93
2018-02-23T14:12:16.824Z,22.77
2018-02-23T14:14:45.116Z,22.53
2018-02-23T14:17:13.377Z,23.77
2018-02-23T14:19:41.577Z,22.83
2018-02-23T14:22:09.869Z,23.60
2018-02-23T14:24:38.901Z,22.63
2018-02-23T14:27:07.121Z,23.53
2018-02-23T14:29:37.428Z,23.43
2018-02-23T14:32:07.875Z,23.13
2018-02-23T14:34:36.845Z,25.33
2018-02-23T14:37:05.042Z,23.63
2018-02-23T14:39:33.277Z,22.70
2018-02-23T14:42:01.595Z,24.03
2018-02-23T14:44:29.983Z,25.00
2018-02-23T14:46:58.212Z,24.03
2018-02-23T14:49:27.203Z,23.07
2018-02-23T14:51:56.184Z,22.73
2018-02-23T14:54:25.748Z,22.57
2018-02-23T14:56:53.976Z,24.20
2018-02-23T14:59:22.993Z,24.00
2018-02-23T15:01:51.242Z,24.20
2018-02-23T15:04:20.293Z,24.13
2018-02-23T15:06:48.652Z,24.17
2018-02-23T15:09:17.070Z,24.30
2018-02-23T15:11:45.276Z,26.10
2018-02-23T15:14:14.569Z,25.37
2018-02-23T15:16:42.839Z,25.83
2018-02-23T15:19:11.068Z,25.27
2018-02-23T15:21:39.319Z,25.00
2018-02-23T15:24:07.666Z,25.07
2018-02-23T15:26:35.908Z,25.00
2018-02-23T15:29:04.121Z,25.70
2018-02-23T15:31:44.020Z,26.57
2018-02-23T15:34:12.219Z,25.17
2018-02-23T15:36:40.413Z,25.33
2018-02-23T15:39:08.627Z,24.47
2018-02-23T15:41:36.817Z,26.47
2018-02-23T15:44:05.029Z,24.90
2018-02-23T15:46:33.244Z,27.50
2018-02-23T15:49:04.088Z,25.00
2018-02-23T15:51:39.325Z,26.43
2018-02-23T15:54:07.516Z,27.63
2018-02-23T15:56:35.806Z,26.07
2018-02-23T15:59:04.049Z,27.07
2018-02-23T16:01:32.272Z,26.63
2018-02-23T16:04:00.514Z,26.93
2018-02-23T16:06:28.774Z,25.87
2018-02-23T16:08:57.739Z,27.00
2018-02-23T16:11:25.929Z,28.57
2018-02-23T16:13:55.009Z,27.70
2018-02-23T16:16:23.225Z,27.30
2018-02-23T16:18:51.489Z,27.47
2018-02-23T16:21:20.512Z,28.67
2018-02-23T16:23:48.716Z,28.83
2018-02-23T16:26:17.217Z,27.83
2018-02-23T16:28:45.417Z,27.70
2018-02-23T16:31:13.617Z,28.33
2018-02-23T16:33:41.834Z,26.90
2018-02-23T16:36:10.144Z,27.57
2018-02-23T16:38:38.340Z,28.00
2018-02-23T16:41:06.576Z,28.63
2018-02-23T16:43:35.597Z,27.43
2018-02-23T16:46:03.798Z,29.83
2018-02-23T16:48:32.018Z,28.23
2018-02-23T16:51:01.030Z,29.30
2018-02-23T16:53:29.226Z,27.73
2018-02-23T16:55:57.463Z,29.47
2018-02-23T16:58:26.497Z,28.40
2018-02-23T17:00:54.715Z,28.63
2018-02-23T17:03:22.957Z,28.40
2018-02-23T17:05:51.278Z,27.03
2018-02-23T17:08:19.478Z,27.50
2018-02-23T17:10:48.455Z,29.00
2018-02-23T17:13:17.442Z,27.53
2018-02-23T17:15:46.440Z,27.97
2018-02-23T17:18:15.769Z,27.07
2018-02-23T17:20:44.056Z,27.73
2018-02-23T17:23:12.386Z,28.67
2018-02-23T17:25:40.557Z,27.40
2018-02-23T17:28:08.814Z,27.00
2018-02-23T17:30:37.017Z,27.60
2018-02-23T17:33:05.229Z,27.73
2018-02-23T17:35:33.473Z,28.50
2018-02-23T17:38:02.562Z,26.70
2018-02-23T17:40:31.560Z,29.03
2018-02-23T17:43:00.620Z,26.10
2018-02-23T17:45:28.833Z,27.77
2018-02-23T17:47:57.814Z,27.13
2018-02-23T17:50:26.812Z,26.63
2018-02-23T17:52:55.928Z,26.77
2018-02-23T17:55:24.128Z,26.67
2018-02-23T17:57:52.371Z,27.27
2018-02-23T18:00:21.341Z,26.80
2018-02-23T18:02:49.536Z,28.23
2018-02-23T18:05:17.817Z,26.07
2018-02-23T18:07:46.065Z,26.50
2018-02-23T18:10:14.300Z,26.93
2018-02-23T18:12:42.565Z,25.50
2018-02-23T18:15:10.817Z,25.83
2018-02-23T18:17:39.040Z,25.87
2018-02-23T18:20:07.296Z,26.83
2018-02-23T18:22:35.508Z,25.93
2018-02-23T18:25:03.780Z,25.93
2018-02-23T18:27:32.041Z,28.10
2018-02-23T18:30:00.276Z,25.50
2018-02-23T18:32:28.555Z,26.93
2018-02-23T18:34:56.808Z,25.27
2018-02-23T18:37:26.034Z,26.43
2018-02-23T18:39:54.320Z,25.57
2018-02-23T18:42:22.633Z,25.77
2018-02-23T18:44:51.074Z,24.57
2018-02-23T18:47:19.297Z,25.93
2018-02-23T18:49:47.626Z,25.77
2018-02-23T18:52:15.868Z,28.63
2018-02-23T18:54:44.157Z,24.63
2018-02-23T18:57:13.198Z,24.03
2018-02-23T18:59:41.405Z,25.47
2018-02-23T19:02:10.386Z,27.00
2018-02-23T19:04:38.673Z,24.80
2018-02-23T19:07:06.887Z,26.23
2018-02-23T19:09:35.308Z,26.00
2018-02-23T19:12:03.708Z,24.77
2018-02-23T19:14:32.691Z,27.20
2018-02-23T19:17:00.894Z,26.90
2018-02-23T19:19:29.969Z,24.77
2018-02-23T19:21:58.265Z,26.33
2018-02-23T19:24:27.330Z,24.70
2018-02-23T19:26:55.633Z,25.10
2018-02-23T19:29:24.623Z,25.30
2018-02-23T19:31:53.592Z,24.63
2018-02-23T19:34:22.628Z,24.67
2018-02-23T19:36:50.905Z,24.57
2018-02-23T19:39:19.263Z,25.33
2018-02-23T19:41:47.572Z,22.83
2018-02-23T19:44:15.780Z,23.30
2018-02-23T19:46:43.982Z,23.63
2018-02-23T19:49:12.996Z,25.60
2018-02-23T19:51:41.242Z,25.37
2018-02-23T19:54:09.427Z,25.70
2018-02-23T19:56:37.705Z,26.03
2018-02-23T19:59:05.960Z,25.13
2018-02-23T20:01:34.236Z,25.27
2018-02-23T20:04:02.713Z,24.57
2018-02-23T20:06:30.992Z,24.63
2018-02-23T20:08:59.206Z,25.30
2018-02-23T20:11:28.483Z,25.30
2018-02-23T20:13:56.744Z,24.87
2018-02-23T20:16:25.037Z,24.23
2018-02-23T20:18:53.367Z,24.17
2018-02-23T20:21:21.570Z,24.47
2018-02-23T20:23:49.836Z,24.37
2018-02-23T20:26:18.161Z,23.73
2018-02-23T20:28:47.200Z,25.13
2018-02-23T20:31:15.478Z,24.80
2018-02-23T20:33:44.704Z,23.97
2018-02-23T20:36:12.907Z,24.93
2018-02-23T20:38:42.008Z,25.50
2018-02-23T20:41:10.319Z,25.37
2018-02-23T20:43:38.527Z,25.90
2018-02-23T20:46:06.777Z,25.53
2018-02-23T20:48:35.013Z,25.10
2018-02-23T20:51:04.166Z,25.90
2018-02-23T20:53:32.357Z,25.50
2018-02-23T20:56:00.615Z,26.20
2018-02-23T20:58:28.830Z,26.00
2018-02-23T21:00:57.797Z,26.27
2018-02-23T21:03:26.100Z,25.47
2018-02-23T21:05:54.356Z,24.77
2018-02-23T21:08:23.340Z,24.03
2018-02-23T21:10:51.612Z,27.13
2018-02-23T21:13:19.813Z,25.93
2018-02-23T21:15:48.965Z,26.57
2018-02-23T21:18:17.206Z,26.60
2018-02-23T21:20:45.429Z,27.00
2018-02-23T21:23:13.665Z,27.97
2018-02-23T21:25:42.033Z,27.67
2018-02-23T21:28:11.724Z,28.07
2018-02-23T21:30:40.687Z,27.40
2018-02-23T21:33:08.925Z,26.80
2018-02-23T21:35:37.270Z,28.10
2018-02-23T21:38:06.319Z,26.90
2018-02-23T21:40:34.539Z,25.33
2018-02-23T21:43:02.769Z,25.83
2018-02-23T21:45:30.962Z,27.93
2018-02-23T21:47:59.377Z,24.50
2018-02-23T21:50:27.806Z,25.67
2018-02-23T21:52:56.024Z,23.97
2018-02-23T21:55:25.104Z,23.50
2018-02-23T21:57:53.357Z,23.47
2018-02-23T22:00:21.560Z,23.43
2018-02-23T22:02:49.788Z,24.97
2018-02-23T22:05:18.069Z,24.80
2018-02-23T22:07:46.277Z,26.23
2018-02-23T22:10:14.635Z,24.53
2018-02-23T22:12:43.189Z,24.23
2018-02-23T22:15:11.374Z,23.23
2018-02-23T22:17:39.683Z,26.63
2018-02-23T22:20:08.342Z,26.10
2018-02-23T22:22:36.768Z,25.50
2018-02-23T22:25:05.768Z,24.53
2018-02-23T22:27:38.727Z,24.87
2018-02-23T22:30:08.122Z,26.17
2018-02-23T22:32:36.318Z,25.50
2018-02-23T22:35:05.350Z,24.83
2018-02-23T22:37:33.742Z,25.27
2018-02-23T22:40:01.945Z,25.60
2018-02-23T22:42:30.321Z,25.23
2018-02-23T22:44:58.592Z,26.70
2018-02-23T22:47:26.786Z,25.10
2018-02-23T22:49:54.980Z,26.10
2018-02-23T22:52:23.983Z,37.10
2018-02-23T22:54:52.940Z,32.87
2018-02-23T22:57:21.938Z,39.40
2018-02-23T22:59:50.176Z,27.70
2018-02-23T23:02:18.401Z,26.30
2018-02-23T23:04:47.373Z,26.87
2018-02-23T23:07:15.666Z,26.10
2018-02-23T23:09:43.896Z,28.27
2018-02-23T23:12:12.216Z,28.17
2018-02-23T23:14:40.483Z,26.37
2018-02-23T23:17:08.665Z,28.13
2018-02-23T23:19:36.884Z,27.10
2018-02-23T23:22:05.188Z,27.20
2018-02-23T23:24:33.400Z,27.00
2018-02-23T23:27:02.419Z,27.13
2018-02-23T23:29:30.648Z,25.97
2018-02-23T23:31:58.857Z,26.63
2018-02-23T23:34:27.860Z,26.17
2018-02-23T23:36:56.162Z,27.23
2018-02-23T23:39:32.098Z,28.27
2018-02-23T23:42:00.375Z,26.60
2018-02-23T23:44:28.880Z,28.27
2018-02-23T23:46:57.065Z,28.70
2018-02-23T23:49:26.109Z,26.20
2018-02-23T23:51:54.470Z,27.63
2018-02-23T23:54:23.440Z,28.37
2018-02-23T23:56:51.830Z,27.63
2018-02-23T23:59:21.388Z,29.57
